sensor_id;sensor_type;location;lat;lon;timestamp;temperature;humidity
7708;DHT22;3896;48.758;8.888;2022-10-18T00:01:06;13.80;99.90
7708;DHT22;3896;48.758;8.888;2022-10-18T00:03:32;13.80;99.90
7708;DHT22;3896;48.758;8.888;2022-10-18T00:05:59;13.80;99.90
7708;DHT22;3896;48.758;8.888;2022-10-18T00:08:25;13.80;99.90
7708;DHT22;3896;48.758;8.888;2022-10-18T00:10:52;13.70;99.90
7708;DHT22;3896;48.758;8.888;2022-10-18T00:13:18;13.70;99.90
7708;DHT22;3896;48.758;8.888;2022-10-18T00:15:56;13.70;99.90
7708;DHT22;3896;48.758;8.888;2022-10-18T00:18:22;13.70;99.90
7708;DHT22;3896;48.758;8.888;2022-10-18T00:20:59;13.60;99.90
7708;DHT22;3896;48.758;8.888;2022-10-18T00:23:26;13.60;99.90
7708;DHT22;3896;48.758;8.888;2022-10-18T00:28:24;13.60;99.90
7708;DHT22;3896;48.758;8.888;2022-10-18T00:30:50;13.60;99.90
7708;DHT22;3896;48.758;8.888;2022-10-18T00:33:15;13.50;99.90
7708;DHT22;3896;48.758;8.888;2022-10-18T00:35:41;13.50;99.90
7708;DHT22;3896;48.758;8.888;2022-10-18T00:38:07;13.50;99.90
7708;DHT22;3896;48.758;8.888;2022-10-18T00:40:32;13.50;99.90
7708;DHT22;3896;48.758;8.888;2022-10-18T00:42:58;13.50;99.90
7708;DHT22;3896;48.758;8.888;2022-10-18T00:45:24;13.50;99.90
7708;DHT22;3896;48.758;8.888;2022-10-18T00:47:57;13.50;99.90
7708;DHT22;3896;48.758;8.888;2022-10-18T00:50:25;13.50;99.90
7708;DHT22;3896;48.758;8.888;2022-10-18T00:52:54;13.50;99.90
7708;DHT22;3896;48.758;8.888;2022-10-18T00:55:21;13.50;99.90
7708;DHT22;3896;48.758;8.888;2022-10-18T00:57:47;13.50;99.90
7708;DHT22;3896;48.758;8.888;2022-10-18T01:00:14;13.50;99.90
7708;DHT22;3896;48.758;8.888;2022-10-18T01:02:43;13.50;99.90
7708;DHT22;3896;48.758;8.888;2022-10-18T01:05:12;13.50;99.90
7708;DHT22;3896;48.758;8.888;2022-10-18T01:07:53;13.60;99.90
7708;DHT22;3896;48.758;8.888;2022-10-18T01:11:03;13.60;99.90
7708;DHT22;3896;48.758;8.888;2022-10-18T01:21:31;13.70;99.90
7708;DHT22;3896;48.758;8.888;2022-10-18T01:32:39;13.90;99.90
7708;DHT22;3896;48.758;8.888;2022-10-18T01:35:11;13.90;99.90
7708;DHT22;3896;48.758;8.888;2022-10-18T01:37:39;14.00;99.90
7708;DHT22;3896;48.758;8.888;2022-10-18T01:40:07;14.00;99.90
7708;DHT22;3896;48.758;8.888;2022-10-18T01:42:34;14.10;99.90
7708;DHT22;3896;48.758;8.888;2022-10-18T01:45:00;14.10;99.90
7708;DHT22;3896;48.758;8.888;2022-10-18T01:47:28;14.10;99.90
7708;DHT22;3896;48.758;8.888;2022-10-18T01:50:02;14.10;99.90
7708;DHT22;3896;48.758;8.888;2022-10-18T01:52:28;14.10;99.90
7708;DHT22;3896;48.758;8.888;2022-10-18T01:54:54;14.10;99.90
7708;DHT22;3896;48.758;8.888;2022-10-18T02:08:53;14.20;99.90
7708;DHT22;3896;48.758;8.888;2022-10-18T02:11:19;14.20;99.90
7708;DHT22;3896;48.758;8.888;2022-10-18T02:13:48;14.20;99.90
7708;DHT22;3896;48.758;8.888;2022-10-18T02:16:19;14.30;99.90
7708;DHT22;3896;48.758;8.888;2022-10-18T02:18:57;14.30;99.90
7708;DHT22;3896;48.758;8.888;2022-10-18T02:21:27;14.30;99.90
7708;DHT22;3896;48.758;8.888;2022-10-18T02:23:54;14.30;99.90
7708;DHT22;3896;48.758;8.888;2022-10-18T02:26:21;14.30;99.90
7708;DHT22;3896;48.758;8.888;2022-10-18T02:28:47;14.40;99.90
7708;DHT22;3896;48.758;8.888;2022-10-18T02:34:20;14.40;99.90
7708;DHT22;3896;48.758;8.888;2022-10-18T02:36:52;14.40;99.90
7708;DHT22;3896;48.758;8.888;2022-10-18T02:39:22;14.40;99.90
7708;DHT22;3896;48.758;8.888;2022-10-18T02:41:48;14.40;99.90
7708;DHT22;3896;48.758;8.888;2022-10-18T02:44:14;14.40;99.90
7708;DHT22;3896;48.758;8.888;2022-10-18T02:46:40;14.50;99.90
7708;DHT22;3896;48.758;8.888;2022-10-18T02:49:06;14.50;99.90
7708;DHT22;3896;48.758;8.888;2022-10-18T02:51:31;14.50;99.90
7708;DHT22;3896;48.758;8.888;2022-10-18T02:53:57;14.50;99.90
7708;DHT22;3896;48.758;8.888;2022-10-18T02:56:22;14.60;99.90
7708;DHT22;3896;48.758;8.888;2022-10-18T02:58:48;14.60;99.90
7708;DHT22;3896;48.758;8.888;2022-10-18T03:01:14;14.60;99.90
7708;DHT22;3896;48.758;8.888;2022-10-18T03:03:39;14.60;99.90
7708;DHT22;3896;48.758;8.888;2022-10-18T03:06:05;14.60;99.90
7708;DHT22;3896;48.758;8.888;2022-10-18T03:08:31;14.60;99.90
7708;DHT22;3896;48.758;8.888;2022-10-18T03:10:56;14.60;99.90
7708;DHT22;3896;48.758;8.888;2022-10-18T03:13:22;14.70;99.90
7708;DHT22;3896;48.758;8.888;2022-10-18T03:15:47;14.70;99.90
7708;DHT22;3896;48.758;8.888;2022-10-18T03:18:14;14.70;99.90
7708;DHT22;3896;48.758;8.888;2022-10-18T03:20:40;14.70;99.90
7708;DHT22;3896;48.758;8.888;2022-10-18T03:23:05;14.70;99.90
7708;DHT22;3896;48.758;8.888;2022-10-18T03:25:32;14.70;99.90
7708;DHT22;3896;48.758;8.888;2022-10-18T03:27:58;14.70;99.90
7708;DHT22;3896;48.758;8.888;2022-10-18T03:30:24;14.70;99.90
7708;DHT22;3896;48.758;8.888;2022-10-18T03:32:50;14.70;99.90
7708;DHT22;3896;48.758;8.888;2022-10-18T03:35:15;14.70;99.90
7708;DHT22;3896;48.758;8.888;2022-10-18T03:37:41;14.70;99.90
7708;DHT22;3896;48.758;8.888;2022-10-18T03:40:07;14.70;99.90
7708;DHT22;3896;48.758;8.888;2022-10-18T03:42:33;14.70;99.90
7708;DHT22;3896;48.758;8.888;2022-10-18T03:44:59;14.70;99.90
7708;DHT22;3896;48.758;8.888;2022-10-18T03:47:24;14.70;99.90
7708;DHT22;3896;48.758;8.888;2022-10-18T03:49:50;14.70;99.90
7708;DHT22;3896;48.758;8.888;2022-10-18T03:52:16;14.80;99.90
7708;DHT22;3896;48.758;8.888;2022-10-18T03:54:41;14.80;99.90
7708;DHT22;3896;48.758;8.888;2022-10-18T03:57:07;14.80;99.90
7708;DHT22;3896;48.758;8.888;2022-10-18T03:59:32;14.70;99.90
7708;DHT22;3896;48.758;8.888;2022-10-18T04:01:58;14.70;99.90
7708;DHT22;3896;48.758;8.888;2022-10-18T04:04:23;14.70;99.90
7708;DHT22;3896;48.758;8.888;2022-10-18T04:06:49;14.70;99.90
7708;DHT22;3896;48.758;8.888;2022-10-18T04:09:15;14.70;99.90
7708;DHT22;3896;48.758;8.888;2022-10-18T04:11:40;14.70;99.90
7708;DHT22;3896;48.758;8.888;2022-10-18T04:14:06;14.70;99.90
7708;DHT22;3896;48.758;8.888;2022-10-18T04:16:32;14.70;99.90
7708;DHT22;3896;48.758;8.888;2022-10-18T04:18:57;14.60;99.90
7708;DHT22;3896;48.758;8.888;2022-10-18T04:21:23;14.60;99.90
7708;DHT22;3896;48.758;8.888;2022-10-18T04:23:49;14.60;99.90
7708;DHT22;3896;48.758;8.888;2022-10-18T04:26:15;14.60;99.90
7708;DHT22;3896;48.758;8.888;2022-10-18T04:28:44;14.60;99.90
7708;DHT22;3896;48.758;8.888;2022-10-18T04:31:10;14.50;99.90
7708;DHT22;3896;48.758;8.888;2022-10-18T04:33:37;14.50;99.90
7708;DHT22;3896;48.758;8.888;2022-10-18T04:36:03;14.50;99.90
7708;DHT22;3896;48.758;8.888;2022-10-18T04:38:28;14.50;99.90
7708;DHT22;3896;48.758;8.888;2022-10-18T04:40:54;14.50;99.90
7708;DHT22;3896;48.758;8.888;2022-10-18T04:43:20;14.50;99.90
7708;DHT22;3896;48.758;8.888;2022-10-18T04:45:45;14.50;99.90
7708;DHT22;3896;48.758;8.888;2022-10-18T04:48:14;14.40;99.90
7708;DHT22;3896;48.758;8.888;2022-10-18T04:50:42;14.40;99.90
7708;DHT22;3896;48.758;8.888;2022-10-18T04:53:08;14.40;99.90
7708;DHT22;3896;48.758;8.888;2022-10-18T04:55:34;14.40;99.90
7708;DHT22;3896;48.758;8.888;2022-10-18T04:57:59;14.40;99.90
7708;DHT22;3896;48.758;8.888;2022-10-18T05:00:25;14.40;99.90
7708;DHT22;3896;48.758;8.888;2022-10-18T05:02:57;14.30;99.90
7708;DHT22;3896;48.758;8.888;2022-10-18T05:05:22;14.30;99.90
7708;DHT22;3896;48.758;8.888;2022-10-18T05:07:48;14.30;99.90
7708;DHT22;3896;48.758;8.888;2022-10-18T05:10:14;14.30;99.90
7708;DHT22;3896;48.758;8.888;2022-10-18T05:12:39;14.30;99.90
7708;DHT22;3896;48.758;8.888;2022-10-18T05:15:05;14.20;99.90
7708;DHT22;3896;48.758;8.888;2022-10-18T05:17:31;14.20;99.90
7708;DHT22;3896;48.758;8.888;2022-10-18T05:19:57;14.20;99.90
7708;DHT22;3896;48.758;8.888;2022-10-18T05:22:22;14.20;99.90
7708;DHT22;3896;48.758;8.888;2022-10-18T05:24:48;14.10;99.90
7708;DHT22;3896;48.758;8.888;2022-10-18T05:27:13;14.20;99.90
7708;DHT22;3896;48.758;8.888;2022-10-18T05:29:39;14.10;99.90
7708;DHT22;3896;48.758;8.888;2022-10-18T05:32:05;14.10;99.90
7708;DHT22;3896;48.758;8.888;2022-10-18T05:34:30;14.10;99.90
7708;DHT22;3896;48.758;8.888;2022-10-18T05:36:59;14.10;99.90
7708;DHT22;3896;48.758;8.888;2022-10-18T05:39:25;14.10;99.90
7708;DHT22;3896;48.758;8.888;2022-10-18T05:41:50;14.10;99.90
7708;DHT22;3896;48.758;8.888;2022-10-18T05:44:16;14.10;99.90
7708;DHT22;3896;48.758;8.888;2022-10-18T05:46:42;14.10;99.90
7708;DHT22;3896;48.758;8.888;2022-10-18T05:49:10;14.10;99.90
7708;DHT22;3896;48.758;8.888;2022-10-18T05:51:36;14.10;99.90
7708;DHT22;3896;48.758;8.888;2022-10-18T05:54:01;14.10;99.90
7708;DHT22;3896;48.758;8.888;2022-10-18T05:56:27;14.20;99.90
7708;DHT22;3896;48.758;8.888;2022-10-18T05:58:53;14.10;99.90
7708;DHT22;3896;48.758;8.888;2022-10-18T06:01:19;14.20;99.90
7708;DHT22;3896;48.758;8.888;2022-10-18T06:03:45;14.20;99.90
7708;DHT22;3896;48.758;8.888;2022-10-18T06:06:12;14.20;99.90
7708;DHT22;3896;48.758;8.888;2022-10-18T06:08:39;14.20;99.90
7708;DHT22;3896;48.758;8.888;2022-10-18T06:11:11;14.30;99.90
7708;DHT22;3896;48.758;8.888;2022-10-18T06:13:44;14.30;99.90
7708;DHT22;3896;48.758;8.888;2022-10-18T06:16:11;14.30;99.90
7708;DHT22;3896;48.758;8.888;2022-10-18T06:18:37;14.40;99.90
7708;DHT22;3896;48.758;8.888;2022-10-18T06:21:03;14.40;99.90
7708;DHT22;3896;48.758;8.888;2022-10-18T06:23:29;14.40;99.90
7708;DHT22;3896;48.758;8.888;2022-10-18T06:26:03;14.50;99.90
7708;DHT22;3896;48.758;8.888;2022-10-18T06:28:29;14.50;99.90
7708;DHT22;3896;48.758;8.888;2022-10-18T06:30:56;14.50;99.90
7708;DHT22;3896;48.758;8.888;2022-10-18T06:33:22;14.60;99.90
7708;DHT22;3896;48.758;8.888;2022-10-18T06:36:05;14.60;99.90
7708;DHT22;3896;48.758;8.888;2022-10-18T06:38:31;14.60;99.90
7708;DHT22;3896;48.758;8.888;2022-10-18T06:40:58;14.70;99.90
7708;DHT22;3896;48.758;8.888;2022-10-18T06:43:24;14.70;99.90
7708;DHT22;3896;48.758;8.888;2022-10-18T06:45:51;14.80;99.90
7708;DHT22;3896;48.758;8.888;2022-10-18T06:48:17;14.80;99.90
7708;DHT22;3896;48.758;8.888;2022-10-18T06:50:54;14.90;99.90
7708;DHT22;3896;48.758;8.888;2022-10-18T06:53:22;14.90;99.90
7708;DHT22;3896;48.758;8.888;2022-10-18T06:55:48;14.90;99.90
7708;DHT22;3896;48.758;8.888;2022-10-18T06:58:13;14.90;99.90
7708;DHT22;3896;48.758;8.888;2022-10-18T07:00:39;15.00;99.90
7708;DHT22;3896;48.758;8.888;2022-10-18T07:03:05;15.00;99.90
7708;DHT22;3896;48.758;8.888;2022-10-18T07:05:31;15.00;99.90
7708;DHT22;3896;48.758;8.888;2022-10-18T07:07:57;15.10;99.90
7708;DHT22;3896;48.758;8.888;2022-10-18T07:10:23;15.10;99.90
7708;DHT22;3896;48.758;8.888;2022-10-18T07:12:50;15.10;99.90
7708;DHT22;3896;48.758;8.888;2022-10-18T07:15:15;15.10;99.90
7708;DHT22;3896;48.758;8.888;2022-10-18T07:17:43;15.20;99.90
7708;DHT22;3896;48.758;8.888;2022-10-18T07:20:10;15.20;99.90
7708;DHT22;3896;48.758;8.888;2022-10-18T07:22:36;15.20;99.90
7708;DHT22;3896;48.758;8.888;2022-10-18T07:25:05;15.30;99.90
7708;DHT22;3896;48.758;8.888;2022-10-18T07:27:34;15.30;99.90
7708;DHT22;3896;48.758;8.888;2022-10-18T07:30:00;15.30;99.90
7708;DHT22;3896;48.758;8.888;2022-10-18T07:32:25;15.40;99.90
7708;DHT22;3896;48.758;8.888;2022-10-18T07:34:51;15.40;99.90
7708;DHT22;3896;48.758;8.888;2022-10-18T07:37:16;15.40;99.90
7708;DHT22;3896;48.758;8.888;2022-10-18T07:39:42;15.50;99.90
7708;DHT22;3896;48.758;8.888;2022-10-18T07:42:08;15.50;99.90
7708;DHT22;3896;48.758;8.888;2022-10-18T07:44:33;15.50;99.90
7708;DHT22;3896;48.758;8.888;2022-10-18T07:46:59;15.60;99.90
7708;DHT22;3896;48.758;8.888;2022-10-18T07:49:24;15.60;99.90
7708;DHT22;3896;48.758;8.888;2022-10-18T07:51:50;15.70;99.90
7708;DHT22;3896;48.758;8.888;2022-10-18T07:54:15;15.70;99.90
7708;DHT22;3896;48.758;8.888;2022-10-18T07:56:42;15.80;99.90
7708;DHT22;3896;48.758;8.888;2022-10-18T07:59:08;15.80;99.90
7708;DHT22;3896;48.758;8.888;2022-10-18T08:01:35;15.90;99.90
7708;DHT22;3896;48.758;8.888;2022-10-18T08:04:00;15.90;99.90
7708;DHT22;3896;48.758;8.888;2022-10-18T08:06:26;16.00;99.90
7708;DHT22;3896;48.758;8.888;2022-10-18T08:08:51;16.00;99.90
7708;DHT22;3896;48.758;8.888;2022-10-18T08:11:20;16.10;99.90
7708;DHT22;3896;48.758;8.888;2022-10-18T08:13:46;16.10;99.90
7708;DHT22;3896;48.758;8.888;2022-10-18T08:16:15;16.20;99.90
7708;DHT22;3896;48.758;8.888;2022-10-18T08:18:41;16.20;99.90
7708;DHT22;3896;48.758;8.888;2022-10-18T08:21:09;16.30;99.90
7708;DHT22;3896;48.758;8.888;2022-10-18T08:23:35;16.40;99.90
7708;DHT22;3896;48.758;8.888;2022-10-18T08:26:03;16.40;99.90
7708;DHT22;3896;48.758;8.888;2022-10-18T08:28:29;16.50;99.90
7708;DHT22;3896;48.758;8.888;2022-10-18T08:30:55;16.50;99.90
7708;DHT22;3896;48.758;8.888;2022-10-18T08:33:20;16.60;99.90
7708;DHT22;3896;48.758;8.888;2022-10-18T08:35:57;16.70;99.90
7708;DHT22;3896;48.758;8.888;2022-10-18T08:38:23;16.70;99.90
7708;DHT22;3896;48.758;8.888;2022-10-18T08:40:48;16.80;99.90
7708;DHT22;3896;48.758;8.888;2022-10-18T08:45:43;16.90;99.90
7708;DHT22;3896;48.758;8.888;2022-10-18T08:48:31;17.00;99.90
7708;DHT22;3896;48.758;8.888;2022-10-18T08:50:59;17.10;99.90
7708;DHT22;3896;48.758;8.888;2022-10-18T08:53:49;17.20;99.90
7708;DHT22;3896;48.758;8.888;2022-10-18T08:56:15;17.30;99.90
7708;DHT22;3896;48.758;8.888;2022-10-18T08:58:46;17.40;99.90
7708;DHT22;3896;48.758;8.888;2022-10-18T09:01:48;17.60;99.90
7708;DHT22;3896;48.758;8.888;2022-10-18T09:04:42;17.70;99.90
7708;DHT22;3896;48.758;8.888;2022-10-18T09:13:07;18.10;99.90
7708;DHT22;3896;48.758;8.888;2022-10-18T09:23:14;18.40;99.90
7708;DHT22;3896;48.758;8.888;2022-10-18T09:26:09;18.50;99.90
7708;DHT22;3896;48.758;8.888;2022-10-18T09:32:22;18.70;99.90
7708;DHT22;3896;48.758;8.888;2022-10-18T09:34:51;18.80;99.90
7708;DHT22;3896;48.758;8.888;2022-10-18T09:37:18;18.90;99.90
7708;DHT22;3896;48.758;8.888;2022-10-18T09:39:47;19.10;99.90
7708;DHT22;3896;48.758;8.888;2022-10-18T09:43:26;19.20;99.90
7708;DHT22;3896;48.758;8.888;2022-10-18T09:45:36;19.30;99.90
7708;DHT22;3896;48.758;8.888;2022-10-18T09:51:01;19.60;99.90
7708;DHT22;3896;48.758;8.888;2022-10-18T09:56:17;19.90;99.90
7708;DHT22;3896;48.758;8.888;2022-10-18T09:58:48;20.10;99.90
7708;DHT22;3896;48.758;8.888;2022-10-18T10:01:25;20.20;99.90
7708;DHT22;3896;48.758;8.888;2022-10-18T10:03:51;20.40;99.90
7708;DHT22;3896;48.758;8.888;2022-10-18T10:06:23;20.50;99.90
7708;DHT22;3896;48.758;8.888;2022-10-18T10:08:56;20.70;99.90
7708;DHT22;3896;48.758;8.888;2022-10-18T10:14:11;20.90;99.90
7708;DHT22;3896;48.758;8.888;2022-10-18T10:19:16;21.30;99.90
7708;DHT22;3896;48.758;8.888;2022-10-18T10:21:42;21.50;99.90
7708;DHT22;3896;48.758;8.888;2022-10-18T10:24:24;21.60;99.70
7708;DHT22;3896;48.758;8.888;2022-10-18T10:26:56;21.70;99.40
7708;DHT22;3896;48.758;8.888;2022-10-18T10:32:11;21.90;97.30
7708;DHT22;3896;48.758;8.888;2022-10-18T10:34:37;22.00;96.70
7708;DHT22;3896;48.758;8.888;2022-10-18T10:37:28;22.20;95.30
7708;DHT22;3896;48.758;8.888;2022-10-18T10:40:13;22.30;94.50
7708;DHT22;3896;48.758;8.888;2022-10-18T10:45:25;22.60;92.70
7708;DHT22;3896;48.758;8.888;2022-10-18T10:47:53;22.70;91.10
7708;DHT22;3896;48.758;8.888;2022-10-18T10:50:25;22.90;91.00
7708;DHT22;3896;48.758;8.888;2022-10-18T10:52:51;23.00;90.60
7708;DHT22;3896;48.758;8.888;2022-10-18T10:55:22;23.00;90.00
7708;DHT22;3896;48.758;8.888;2022-10-18T10:57:49;23.10;88.30
7708;DHT22;3896;48.758;8.888;2022-10-18T11:00:35;23.10;87.20
7708;DHT22;3896;48.758;8.888;2022-10-18T11:05:45;23.20;85.10
7708;DHT22;3896;48.758;8.888;2022-10-18T11:08:15;23.30;84.50
7708;DHT22;3896;48.758;8.888;2022-10-18T11:11:07;23.30;83.70
7708;DHT22;3896;48.758;8.888;2022-10-18T11:13:47;23.40;84.20
7708;DHT22;3896;48.758;8.888;2022-10-18T11:18:48;23.50;83.50
7708;DHT22;3896;48.758;8.888;2022-10-18T11:21:19;23.60;83.10
7708;DHT22;3896;48.758;8.888;2022-10-18T11:23:47;23.80;82.90
7708;DHT22;3896;48.758;8.888;2022-10-18T11:26:36;23.80;82.90
7708;DHT22;3896;48.758;8.888;2022-10-18T11:34:43;24.10;78.50
7708;DHT22;3896;48.758;8.888;2022-10-18T11:42:49;24.30;77.20
7708;DHT22;3896;48.758;8.888;2022-10-18T11:45:30;24.30;77.10
7708;DHT22;3896;48.758;8.888;2022-10-18T11:48:11;24.40;75.70
7708;DHT22;3896;48.758;8.888;2022-10-18T11:50:47;24.50;75.40
7708;DHT22;3896;48.758;8.888;2022-10-18T11:58:40;24.80;72.90
7708;DHT22;3896;48.758;8.888;2022-10-18T12:01:26;25.00;72.70
7708;DHT22;3896;48.758;8.888;2022-10-18T12:06:36;25.20;71.70
7708;DHT22;3896;48.758;8.888;2022-10-18T12:09:39;25.30;71.70
7708;DHT22;3896;48.758;8.888;2022-10-18T12:12:17;25.40;70.80
7708;DHT22;3896;48.758;8.888;2022-10-18T12:14:53;25.50;69.70
7708;DHT22;3896;48.758;8.888;2022-10-18T12:19:57;25.80;68.60
7708;DHT22;3896;48.758;8.888;2022-10-18T12:22:44;25.90;68.20
7708;DHT22;3896;48.758;8.888;2022-10-18T12:25:13;26.00;67.20
7708;DHT22;3896;48.758;8.888;2022-10-18T12:27:45;26.20;66.30
7708;DHT22;3896;48.758;8.888;2022-10-18T12:32:55;26.30;65.80
7708;DHT22;3896;48.758;8.888;2022-10-18T12:35:23;26.50;65.70
7708;DHT22;3896;48.758;8.888;2022-10-18T12:38:10;26.60;65.40
7708;DHT22;3896;48.758;8.888;2022-10-18T12:40:49;26.80;65.00
7708;DHT22;3896;48.758;8.888;2022-10-18T12:43:28;26.80;64.70
7708;DHT22;3896;48.758;8.888;2022-10-18T12:46:00;27.00;64.90
7708;DHT22;3896;48.758;8.888;2022-10-18T12:53:32;27.40;63.80
7708;DHT22;3896;48.758;8.888;2022-10-18T12:59:26;27.70;61.90
7708;DHT22;3896;48.758;8.888;2022-10-18T13:09:25;28.20;58.80
7708;DHT22;3896;48.758;8.888;2022-10-18T13:11:55;28.30;58.80
7708;DHT22;3896;48.758;8.888;2022-10-18T13:14:31;28.40;58.70
7708;DHT22;3896;48.758;8.888;2022-10-18T13:20:19;28.60;58.20
7708;DHT22;3896;48.758;8.888;2022-10-18T13:33:38;29.20;56.60
7708;DHT22;3896;48.758;8.888;2022-10-18T13:36:19;29.30;56.10
7708;DHT22;3896;48.758;8.888;2022-10-18T13:41:20;29.50;55.30
7708;DHT22;3896;48.758;8.888;2022-10-18T13:46:22;29.80;54.30
7708;DHT22;3896;48.758;8.888;2022-10-18T13:48:50;29.80;54.20
7708;DHT22;3896;48.758;8.888;2022-10-18T13:54:06;29.90;54.20
7708;DHT22;3896;48.758;8.888;2022-10-18T14:02:08;29.90;54.50
7708;DHT22;3896;48.758;8.888;2022-10-18T14:04:42;29.80;54.20
7708;DHT22;3896;48.758;8.888;2022-10-18T14:07:11;29.70;54.10
7708;DHT22;3896;48.758;8.888;2022-10-18T14:09:53;29.70;54.40
7708;DHT22;3896;48.758;8.888;2022-10-18T14:12:29;29.60;54.20
7708;DHT22;3896;48.758;8.888;2022-10-18T14:15:16;29.50;54.00
7708;DHT22;3896;48.758;8.888;2022-10-18T14:18:33;29.30;54.40
7708;DHT22;3896;48.758;8.888;2022-10-18T14:20:42;29.20;54.40
7708;DHT22;3896;48.758;8.888;2022-10-18T14:23:18;29.10;54.50
7708;DHT22;3896;48.758;8.888;2022-10-18T14:25:46;28.90;54.80
7708;DHT22;3896;48.758;8.888;2022-10-18T14:28:16;28.80;55.10
7708;DHT22;3896;48.758;8.888;2022-10-18T14:30:55;28.70;56.20
7708;DHT22;3896;48.758;8.888;2022-10-18T14:38:37;28.10;56.70
7708;DHT22;3896;48.758;8.888;2022-10-18T14:41:22;28.00;57.00
7708;DHT22;3896;48.758;8.888;2022-10-18T14:43:48;27.80;57.40
7708;DHT22;3896;48.758;8.888;2022-10-18T14:49:00;27.50;58.20
7708;DHT22;3896;48.758;8.888;2022-10-18T14:51:27;27.40;58.80
7708;DHT22;3896;48.758;8.888;2022-10-18T14:53:54;27.30;59.50
7708;DHT22;3896;48.758;8.888;2022-10-18T14:56:31;27.20;59.90
7708;DHT22;3896;48.758;8.888;2022-10-18T14:59:02;27.00;60.10
7708;DHT22;3896;48.758;8.888;2022-10-18T15:01:30;26.90;60.70
7708;DHT22;3896;48.758;8.888;2022-10-18T15:04:08;26.70;61.10
7708;DHT22;3896;48.758;8.888;2022-10-18T15:06:34;26.60;61.50
7708;DHT22;3896;48.758;8.888;2022-10-18T15:09:01;26.50;62.00
7708;DHT22;3896;48.758;8.888;2022-10-18T15:11:29;26.40;62.30
7708;DHT22;3896;48.758;8.888;2022-10-18T15:13:56;26.30;62.70
7708;DHT22;3896;48.758;8.888;2022-10-18T15:16:25;26.20;62.90
7708;DHT22;3896;48.758;8.888;2022-10-18T15:22:09;25.90;63.80
7708;DHT22;3896;48.758;8.888;2022-10-18T15:24:36;25.60;64.00
7708;DHT22;3896;48.758;8.888;2022-10-18T15:27:16;25.60;65.00
7708;DHT22;3896;48.758;8.888;2022-10-18T15:29:43;25.40;65.40
7708;DHT22;3896;48.758;8.888;2022-10-18T15:32:24;25.30;65.90
7708;DHT22;3896;48.758;8.888;2022-10-18T15:34:51;25.20;66.50
7708;DHT22;3896;48.758;8.888;2022-10-18T15:42:50;24.80;67.90
7708;DHT22;3896;48.758;8.888;2022-10-18T15:50:41;24.40;69.80
7708;DHT22;3896;48.758;8.888;2022-10-18T15:58:16;24.20;71.30
7708;DHT22;3896;48.758;8.888;2022-10-18T16:00:44;24.10;71.70
7708;DHT22;3896;48.758;8.888;2022-10-18T16:03:10;24.10;72.10
7708;DHT22;3896;48.758;8.888;2022-10-18T16:05:37;24.00;72.60
7708;DHT22;3896;48.758;8.888;2022-10-18T16:08:03;23.90;73.10
7708;DHT22;3896;48.758;8.888;2022-10-18T16:10:29;23.80;73.50
7708;DHT22;3896;48.758;8.888;2022-10-18T16:12:55;23.70;73.80
7708;DHT22;3896;48.758;8.888;2022-10-18T16:15:20;23.70;74.30
7708;DHT22;3896;48.758;8.888;2022-10-18T16:17:47;23.60;74.60
7708;DHT22;3896;48.758;8.888;2022-10-18T16:20:21;23.50;75.10
7708;DHT22;3896;48.758;8.888;2022-10-18T16:22:47;23.40;75.30
7708;DHT22;3896;48.758;8.888;2022-10-18T16:25:13;23.30;75.70
7708;DHT22;3896;48.758;8.888;2022-10-18T16:27:38;23.20;75.80
7708;DHT22;3896;48.758;8.888;2022-10-18T16:30:19;23.10;75.90
7708;DHT22;3896;48.758;8.888;2022-10-18T16:32:45;23.00;75.90
7708;DHT22;3896;48.758;8.888;2022-10-18T16:35:11;23.00;76.60
7708;DHT22;3896;48.758;8.888;2022-10-18T16:37:38;22.90;76.80
7708;DHT22;3896;48.758;8.888;2022-10-18T16:40:24;22.80;77.10
7708;DHT22;3896;48.758;8.888;2022-10-18T16:42:50;22.70;77.10
7708;DHT22;3896;48.758;8.888;2022-10-18T16:45:16;22.60;77.80
7708;DHT22;3896;48.758;8.888;2022-10-18T16:47:42;22.50;78.10
7708;DHT22;3896;48.758;8.888;2022-10-18T16:50:16;22.50;78.50
7708;DHT22;3896;48.758;8.888;2022-10-18T16:52:42;22.40;78.80
7708;DHT22;3896;48.758;8.888;2022-10-18T16:55:08;22.30;79.10
7708;DHT22;3896;48.758;8.888;2022-10-18T16:57:41;22.20;79.40
7708;DHT22;3896;48.758;8.888;2022-10-18T17:00:13;22.10;79.70
7708;DHT22;3896;48.758;8.888;2022-10-18T17:02:40;22.00;80.10
7708;DHT22;3896;48.758;8.888;2022-10-18T17:05:06;21.90;80.50
7708;DHT22;3896;48.758;8.888;2022-10-18T17:07:31;21.80;80.90
7708;DHT22;3896;48.758;8.888;2022-10-18T17:09:57;21.70;81.20
7708;DHT22;3896;48.758;8.888;2022-10-18T17:12:23;21.60;81.20
7708;DHT22;3896;48.758;8.888;2022-10-18T17:14:48;21.50;81.10
7708;DHT22;3896;48.758;8.888;2022-10-18T17:17:14;21.40;81.30
7708;DHT22;3896;48.758;8.888;2022-10-18T17:19:39;21.40;81.20
7708;DHT22;3896;48.758;8.888;2022-10-18T17:22:05;21.20;81.00
7708;DHT22;3896;48.758;8.888;2022-10-18T17:24:30;21.10;80.80
7708;DHT22;3896;48.758;8.888;2022-10-18T17:26:56;21.10;81.10
7708;DHT22;3896;48.758;8.888;2022-10-18T17:29:21;21.00;81.30
7708;DHT22;3896;48.758;8.888;2022-10-18T17:31:47;20.90;81.40
7708;DHT22;3896;48.758;8.888;2022-10-18T17:34:12;20.70;81.40
7708;DHT22;3896;48.758;8.888;2022-10-18T17:36:43;20.70;81.60
7708;DHT22;3896;48.758;8.888;2022-10-18T17:39:08;20.50;81.40
7708;DHT22;3896;48.758;8.888;2022-10-18T17:41:34;20.50;81.80
7708;DHT22;3896;48.758;8.888;2022-10-18T17:44:02;20.40;82.10
7708;DHT22;3896;48.758;8.888;2022-10-18T17:46:27;20.30;82.20
7708;DHT22;3896;48.758;8.888;2022-10-18T17:48:53;20.20;82.40
7708;DHT22;3896;48.758;8.888;2022-10-18T17:51:19;20.10;82.60
7708;DHT22;3896;48.758;8.888;2022-10-18T17:53:45;20.00;82.80
7708;DHT22;3896;48.758;8.888;2022-10-18T17:56:11;19.90;83.20
7708;DHT22;3896;48.758;8.888;2022-10-18T17:58:37;19.80;83.80
7708;DHT22;3896;48.758;8.888;2022-10-18T18:01:11;19.70;84.40
7708;DHT22;3896;48.758;8.888;2022-10-18T18:03:36;19.60;85.00
7708;DHT22;3896;48.758;8.888;2022-10-18T18:06:20;19.50;85.70
7708;DHT22;3896;48.758;8.888;2022-10-18T18:08:46;19.30;85.60
7708;DHT22;3896;48.758;8.888;2022-10-18T18:11:13;19.30;86.90
7708;DHT22;3896;48.758;8.888;2022-10-18T18:13:39;19.20;87.30
7708;DHT22;3896;48.758;8.888;2022-10-18T18:16:18;19.20;87.50
7708;DHT22;3896;48.758;8.888;2022-10-18T18:18:45;19.10;87.80
7708;DHT22;3896;48.758;8.888;2022-10-18T18:21:11;19.00;88.10
7708;DHT22;3896;48.758;8.888;2022-10-18T18:23:37;19.00;88.70
7708;DHT22;3896;48.758;8.888;2022-10-18T18:26:03;18.90;88.90
7708;DHT22;3896;48.758;8.888;2022-10-18T18:28:28;18.80;89.10
7708;DHT22;3896;48.758;8.888;2022-10-18T18:30:54;18.80;89.40
7708;DHT22;3896;48.758;8.888;2022-10-18T18:33:20;18.70;89.00
7708;DHT22;3896;48.758;8.888;2022-10-18T18:35:58;18.60;88.70
7708;DHT22;3896;48.758;8.888;2022-10-18T18:38:24;18.50;88.30
7708;DHT22;3896;48.758;8.888;2022-10-18T18:41:02;18.50;88.70
7708;DHT22;3896;48.758;8.888;2022-10-18T18:43:27;18.40;88.70
7708;DHT22;3896;48.758;8.888;2022-10-18T18:45:53;18.30;89.00
7708;DHT22;3896;48.758;8.888;2022-10-18T18:48:19;18.20;89.10
7708;DHT22;3896;48.758;8.888;2022-10-18T18:50:44;18.20;89.60
7708;DHT22;3896;48.758;8.888;2022-10-18T18:53:15;18.10;90.00
7708;DHT22;3896;48.758;8.888;2022-10-18T18:55:41;18.00;90.10
7708;DHT22;3896;48.758;8.888;2022-10-18T18:58:08;18.00;90.20
7708;DHT22;3896;48.758;8.888;2022-10-18T19:00:39;17.90;90.30
7708;DHT22;3896;48.758;8.888;2022-10-18T19:03:05;17.80;90.50
7708;DHT22;3896;48.758;8.888;2022-10-18T19:05:32;17.70;90.90